createdAt,value
2022-08-02T00:00:55.354Z,98463.16
2022-08-02T00:03:24.521Z,98457.19
2022-08-02T00:05:53.146Z,98451.47
2022-08-02T00:08:20.757Z,98452.50
2022-08-02T00:10:47.354Z,98458.63
2022-08-02T00:13:13.969Z,98456.56
2022-08-02T00:15:40.507Z,98456.78
2022-08-02T00:18:07.026Z,98458.00
2022-08-02T00:20:33.622Z,98460.06
2022-08-02T00:23:00.090Z,98460.28
2022-08-02T00:25:26.683Z,98461.50
2022-08-02T00:27:53.155Z,98458.00
2022-08-02T00:30:19.712Z,98463.56
2022-08-02T00:32:46.372Z,98466.03
2022-08-02T00:35:12.995Z,98467.28
2022-08-02T00:37:40.640Z,98460.66
2022-08-02T00:40:09.141Z,98460.44
2022-08-02T00:42:35.799Z,98462.94
2022-08-02T00:45:02.462Z,98461.06
2022-08-02T00:47:28.978Z,98465.19
2022-08-02T00:49:55.670Z,98465.00
2022-08-02T00:52:23.764Z,98469.97
2022-08-02T00:54:50.634Z,98465.63
2022-08-02T00:57:17.200Z,98463.38
2022-08-02T00:59:43.701Z,98463.78
2022-08-02T01:02:10.577Z,98460.06
2022-08-02T01:04:37.325Z,98455.09
2022-08-02T01:07:12.761Z,98460.91
2022-08-02T01:09:44.409Z,98457.19
2022-08-02T01:12:11.767Z,98458.19
2022-08-02T01:14:40.031Z,98454.06
2022-08-02T01:17:31.835Z,98456.97
2022-08-02T01:20:25.960Z,98460.66
2022-08-02T01:23:19.741Z,98465.19
2022-08-02T01:26:14.022Z,98467.28
2022-08-02T01:28:43.906Z,98467.28
2022-08-02T01:31:19.240Z,98473.25
2022-08-02T01:34:13.868Z,98477.38
2022-08-02T01:36:42.190Z,98479.22
2022-08-02T01:39:26.958Z,98484.34
2022-08-02T01:41:59.760Z,98483.09
2022-08-02T01:44:29.060Z,98489.09
2022-08-02T01:46:58.831Z,98478.16
2022-08-02T01:49:26.255Z,98482.69
2022-08-02T01:52:12.195Z,98487.81
2022-08-02T01:54:40.241Z,98485.75
2022-08-02T01:57:10.368Z,98485.16
2022-08-02T01:59:38.028Z,98481.44
2022-08-02T02:02:08.123Z,98493.78
2022-08-02T02:04:35.837Z,98479.16
2022-08-02T02:07:03.259Z,98489.88
2022-08-02T02:09:31.146Z,98487.81
2022-08-02T02:12:06.076Z,98493.56
2022-08-02T02:14:40.204Z,98485.75
2022-08-02T02:17:07.151Z,98488.84
2022-08-02T02:19:34.442Z,98483.66
2022-08-02T02:22:01.582Z,98492.09
2022-08-02T02:24:28.901Z,98486.16
2022-08-02T02:26:55.591Z,98486.56
2022-08-02T02:29:26.035Z,98486.94
2022-08-02T02:31:54.028Z,98484.88
2022-08-02T02:34:29.291Z,98483.00
2022-08-02T02:36:58.677Z,98475.19
2022-08-02T02:39:27.037Z,98481.34
2022-08-02T02:41:55.081Z,98476.41
2022-08-02T02:44:22.764Z,98474.94
2022-08-02T02:46:52.543Z,98466.47
2022-08-02T02:49:20.459Z,98471.81
2022-08-02T02:51:47.870Z,98471.63
2022-08-02T02:54:32.101Z,98471.63
2022-08-02T02:57:02.809Z,98471.47
2022-08-02T02:59:29.532Z,98466.50
2022-08-02T03:01:58.087Z,98463.25
2022-08-02T03:04:27.343Z,98461.81
2022-08-02T03:07:04.084Z,98461.63
2022-08-02T03:09:30.676Z,98463.25
2022-08-02T03:11:57.604Z,98466.56
2022-08-02T03:14:24.230Z,98458.34
2022-08-02T03:16:52.973Z,98459.16
2022-08-02T03:19:20.866Z,98446.78
2022-08-02T03:21:48.665Z,98451.94
2022-08-02T03:24:27.819Z,98457.13
2022-08-02T03:26:55.604Z,98466.16
2022-08-02T03:29:22.090Z,98462.03
2022-08-02T03:31:48.729Z,98462.44
2022-08-02T03:34:15.334Z,98462.44
2022-08-02T03:36:43.033Z,98469.38
2022-08-02T03:39:10.824Z,98475.78
2022-08-02T03:41:38.234Z,98473.72
2022-08-02T03:44:05.495Z,98474.31
2022-08-02T03:46:32.561Z,98478.59
2022-08-02T03:48:59.256Z,98479.00
2022-08-02T03:51:26.511Z,98481.44
2022-08-02T03:53:53.292Z,98481.94
2022-08-02T03:56:19.947Z,98481.06
2022-08-02T03:58:49.287Z,98489.75
2022-08-02T04:01:16.364Z,98492.16
2022-08-02T04:03:43.196Z,98493.19
2022-08-02T04:06:09.696Z,98491.09
2022-08-02T04:08:38.427Z,98493.91
2022-08-02T04:11:24.507Z,98498.00
2022-08-02T04:13:51.085Z,98500.25
2022-08-02T04:16:22.902Z,98513.25
2022-08-02T04:19:01.196Z,98515.28
2022-08-02T04:21:48.983Z,98507.06
2022-08-02T04:24:19.120Z,98520.00
2022-08-02T04:26:48.799Z,98511.97
2022-08-02T04:29:17.321Z,98516.69
2022-08-02T04:31:43.988Z,98516.06
2022-08-02T04:34:14.783Z,98518.75
2022-08-02T04:36:42.164Z,98518.53
2022-08-02T04:39:08.820Z,98525.97
2022-08-02T04:41:43.897Z,98533.41
2022-08-02T04:44:11.839Z,98527.84
2022-08-02T04:46:39.380Z,98533.44
2022-08-02T04:49:06.588Z,98531.88
2022-08-02T04:51:38.315Z,98528.03
2022-08-02T04:54:09.551Z,98532.19
2022-08-02T04:56:39.502Z,98525.03
2022-08-02T04:59:06.774Z,98513.53
2022-08-02T05:01:33.656Z,98515.19
2022-08-02T05:04:01.121Z,98515.19
2022-08-02T05:06:27.634Z,98521.19
2022-08-02T05:08:54.191Z,98527.59
2022-08-02T05:11:22.259Z,98524.72
2022-08-02T05:13:58.993Z,98526.22
2022-08-02T05:16:30.927Z,98527.63
2022-08-02T05:18:59.549Z,98528.84
2022-08-02T05:21:26.186Z,98525.34
2022-08-02T05:23:52.647Z,98523.09
2022-08-02T05:26:19.251Z,98530.06
2022-08-02T05:28:45.713Z,98526.00
2022-08-02T05:31:12.425Z,98522.91
2022-08-02T05:33:40.755Z,98519.81
2022-08-02T05:36:09.375Z,98516.50
2022-08-02T05:38:36.770Z,98519.19
2022-08-02T05:41:04.340Z,98517.91
2022-08-02T05:43:31.121Z,98525.13
2022-08-02T05:45:57.774Z,98517.13
2022-08-02T05:48:29.289Z,98516.94
2022-08-02T05:51:03.825Z,98517.97
2022-08-02T05:53:50.092Z,98525.41
2022-08-02T05:56:40.899Z,98527.69
2022-08-02T05:59:31.225Z,98523.16
2022-08-02T06:02:10.207Z,98527.47
2022-08-02T06:05:13.279Z,98532.63
2022-08-02T06:07:40.869Z,98531.41
2022-08-02T06:10:08.462Z,98534.72
2022-08-02T06:12:41.614Z,98530.22
2022-08-02T06:15:08.449Z,98529.41
2022-08-02T06:17:35.000Z,98530.44
2022-08-02T06:20:09.089Z,98536.22
2022-08-02T06:22:36.989Z,98536.59
2022-08-02T06:25:05.230Z,98540.94
2022-08-02T06:27:35.131Z,98534.97
2022-08-02T06:30:02.756Z,98526.50
2022-08-02T06:32:29.325Z,98531.84
2022-08-02T06:34:55.850Z,98532.69
2022-08-02T06:37:38.595Z,98533.09
2022-08-02T06:40:14.610Z,98535.75
2022-08-02T06:42:50.009Z,98530.59
2022-08-02T06:45:17.011Z,98522.13
2022-08-02T06:47:44.019Z,98524.81
2022-08-02T06:50:13.509Z,98518.81
2022-08-02T06:52:40.308Z,98528.94
2022-08-02T06:55:07.393Z,98529.94
2022-08-02T06:57:34.312Z,98529.13
2022-08-02T07:00:06.628Z,98529.13
2022-08-02T07:02:33.039Z,98527.47
2022-08-02T07:04:59.963Z,98525.63
2022-08-02T07:07:27.208Z,98526.00
2022-08-02T07:10:00.154Z,98530.75
2022-08-02T07:12:32.136Z,98530.56
2022-08-02T07:15:05.707Z,98524.97
2022-08-02T07:17:32.906Z,98527.59
2022-08-02T07:19:59.990Z,98532.53
2022-08-02T07:22:28.155Z,98536.03
2022-08-02T07:24:58.943Z,98530.47
2022-08-02T07:27:26.079Z,98532.09
2022-08-02T07:29:52.577Z,98523.34
2022-08-02T07:32:21.506Z,98534.66
2022-08-02T07:34:52.919Z,98541.63
2022-08-02T07:37:35.582Z,98537.91
2022-08-02T07:40:14.882Z,98533.13
2022-08-02T07:42:47.180Z,98537.47
2022-08-02T07:45:14.295Z,98534.78
2022-08-02T07:47:41.854Z,98546.56
2022-08-02T07:50:10.026Z,98542.25
2022-08-02T07:52:37.271Z,98541.78
2022-08-02T07:55:05.107Z,98547.53
2022-08-02T07:57:31.938Z,98534.69
2022-08-02T07:59:58.703Z,98542.16
2022-08-02T08:02:25.268Z,98543.41
2022-08-02T08:04:53.151Z,98539.28
2022-08-02T08:07:20.242Z,98552.47
2022-08-02T08:09:47.506Z,98551.19
2022-08-02T08:12:15.670Z,98543.91
2022-08-02T08:14:43.762Z,98537.47
2022-08-02T08:17:10.235Z,98539.97
2022-08-02T08:19:50.777Z,98534.59
2022-08-02T08:22:22.291Z,98533.03
2022-08-02T08:24:49.344Z,98532.88
2022-08-02T08:27:19.692Z,98534.38
2022-08-02T08:29:46.391Z,98543.63
2022-08-02T08:32:18.080Z,98538.03
2022-08-02T08:34:46.165Z,98544.66
2022-08-02T08:37:17.188Z,98540.53
2022-08-02T08:39:56.963Z,98527.88
2022-08-02T08:42:26.473Z,98537.91
2022-08-02T08:44:54.883Z,98545.13
2022-08-02T08:47:23.245Z,98533.31
2022-08-02T08:49:52.747Z,98534.78
2022-08-02T08:52:20.123Z,98529.63
2022-08-02T08:54:49.759Z,98526.72
2022-08-02T08:57:18.105Z,98530.41
2022-08-02T08:59:45.859Z,98535.13
2022-08-02T09:02:20.421Z,98530.06
2022-08-02T09:04:54.700Z,98536.84
2022-08-02T09:07:22.181Z,98527.13
2022-08-02T09:09:48.733Z,98518.38
2022-08-02T09:12:16.179Z,98516.88
2022-08-02T09:14:43.152Z,98529.59
2022-08-02T09:17:12.557Z,98526.16
2022-08-02T09:19:39.976Z,98521.22
2022-08-02T09:22:14.680Z,98521.16
2022-08-02T09:24:50.055Z,98512.38
2022-08-02T09:27:19.143Z,98512.16
2022-08-02T09:30:12.637Z,98517.19
2022-08-02T09:32:47.783Z,98510.44
2022-08-02T09:35:15.285Z,98508.69
2022-08-02T09:37:42.787Z,98497.16
2022-08-02T09:40:12.302Z,98501.47
2022-08-02T09:42:58.193Z,98500.69
2022-08-02T09:45:30.585Z,98504.78
2022-08-02T09:47:57.084Z,98499.25
2022-08-02T09:50:23.622Z,98506.13
2022-08-02T09:52:50.189Z,98499.66
2022-08-02T09:55:16.807Z,98497.66
2022-08-02T09:57:43.392Z,98501.63
2022-08-02T10:00:27.020Z,98499.72
2022-08-02T10:03:09.183Z,98498.91
2022-08-02T10:05:55.970Z,98498.81
2022-08-02T10:08:32.649Z,98492.00
2022-08-02T10:11:00.690Z,98494.34
2022-08-02T10:13:35.268Z,98494.47
2022-08-02T10:16:03.543Z,98494.13
2022-08-02T10:18:45.629Z,98496.97
2022-08-02T10:21:20.684Z,98499.06
2022-08-02T10:23:48.448Z,98483.69
2022-08-02T10:26:16.786Z,98486.97
2022-08-02T10:28:45.919Z,98483.22
2022-08-02T10:31:15.142Z,98488.13
2022-08-02T10:33:42.082Z,98488.50
2022-08-02T10:36:09.015Z,98481.56
2022-08-02T10:38:36.181Z,98479.28
2022-08-02T10:41:03.251Z,98478.41
2022-08-02T10:43:32.770Z,98469.94
2022-08-02T10:46:28.666Z,98468.66
2022-08-02T10:52:01.861Z,98468.16
2022-08-02T10:54:31.393Z,98465.78
2022-08-02T10:56:59.354Z,98458.41
2022-08-02T10:59:38.029Z,98458.03
2022-08-02T11:02:05.863Z,98464.84
2022-08-02T11:04:33.416Z,98454.75
2022-08-02T11:07:10.651Z,98455.47
2022-08-02T11:09:37.788Z,98454.59
2022-08-02T11:12:15.745Z,98453.38
2022-08-02T11:15:00.614Z,98449.97
2022-08-02T11:17:38.056Z,98454.78
2022-08-02T11:20:10.879Z,98447.25
2022-08-02T11:22:38.341Z,98447.53
2022-08-02T11:25:23.286Z,98453.28
2022-08-02T11:27:54.653Z,98448.84
2022-08-02T11:30:26.576Z,98431.19
2022-08-02T11:32:58.214Z,98438.81
2022-08-02T11:35:32.711Z,98428.56
2022-08-02T11:38:13.243Z,98425.03
2022-08-02T11:40:39.911Z,98428.47
2022-08-02T11:43:19.757Z,98418.56
2022-08-02T11:45:46.872Z,98423.72
2022-08-02T11:48:13.444Z,98415.59
2022-08-02T11:50:40.466Z,98422.91
2022-08-02T11:53:14.551Z,98426.59
2022-08-02T11:55:41.158Z,98422.50
2022-08-02T11:58:09.850Z,98425.44
2022-08-02T12:00:38.309Z,98418.63
2022-08-02T12:03:06.125Z,98413.84
2022-08-02T12:06:04.963Z,98417.06
2022-08-02T12:08:25.062Z,98415.41
2022-08-02T12:10:52.238Z,98415.50
2022-08-02T12:13:18.791Z,98415.09
2022-08-02T12:15:46.489Z,98413.84
2022-08-02T12:18:36.448Z,98414.31
2022-08-02T12:21:03.695Z,98410.28
2022-08-02T12:23:30.359Z,98419.78
2022-08-02T12:26:07.478Z,98410.31
2022-08-02T12:28:35.797Z,98410.72
2022-08-02T12:31:02.399Z,98410.09
2022-08-02T12:33:44.098Z,98410.91
2022-08-02T12:36:21.507Z,98405.75
2022-08-02T12:38:55.491Z,98399.34
2022-08-02T12:41:31.707Z,98403.56
2022-08-02T12:43:59.612Z,98407.53
2022-08-02T12:46:26.127Z,98400.38
2022-08-02T12:49:16.879Z,98406.53
2022-08-02T12:51:50.742Z,98388.81
2022-08-02T12:54:30.956Z,98399.22
2022-08-02T12:57:10.881Z,98392.41
2022-08-02T12:59:39.878Z,98391.34
2022-08-02T13:02:09.354Z,98381.88
2022-08-02T13:04:36.112Z,98382.78
2022-08-02T13:07:03.462Z,98385.50
2022-08-02T13:09:36.444Z,98384.16
2022-08-02T13:12:03.639Z,98394.00
2022-08-02T13:14:30.289Z,98388.81
2022-08-02T13:16:56.849Z,98384.16
2022-08-02T13:19:38.695Z,98378.38
2022-08-02T13:22:05.557Z,98380.25
2022-08-02T13:24:40.126Z,98376.78
2022-08-02T13:27:20.935Z,98377.66
2022-08-02T13:29:48.953Z,98369.41
2022-08-02T13:32:16.482Z,98366.06
2022-08-02T13:34:43.387Z,98363.56
2022-08-02T13:37:10.328Z,98366.69
2022-08-02T13:39:36.892Z,98373.50
2022-08-02T13:42:03.616Z,98366.22
2022-08-02T13:44:30.157Z,98366.22
2022-08-02T13:46:56.883Z,98360.41
2022-08-02T13:49:49.669Z,98353.91
2022-08-02T13:52:10.918Z,98349.91
2022-08-02T13:54:37.747Z,98345.63
2022-08-02T13:57:04.345Z,98342.59
2022-08-02T13:59:57.138Z,98340.88
2022-08-02T14:02:18.636Z,98334.22
2022-08-02T14:04:45.340Z,98331.56
2022-08-02T14:07:11.992Z,98333.31
2022-08-02T14:09:38.535Z,98335.28
2022-08-02T14:12:07.552Z,98337.13
2022-08-02T14:14:34.122Z,98328.72
2022-08-02T14:17:01.802Z,98327.31
2022-08-02T14:19:28.556Z,98328.03
2022-08-02T14:21:55.122Z,98330.19
2022-08-02T14:24:39.574Z,98330.47
2022-08-02T14:27:06.217Z,98326.16
2022-08-02T14:29:33.024Z,98328.47
2022-08-02T14:31:59.583Z,98324.63
2022-08-02T14:34:26.139Z,98321.47
2022-08-02T14:36:55.163Z,98326.25
2022-08-02T14:39:21.815Z,98326.31
2022-08-02T14:41:58.360Z,98326.28
2022-08-02T14:44:26.792Z,98325.78
2022-08-02T14:46:53.404Z,98321.97
2022-08-02T14:49:25.276Z,98321.13
2022-08-02T14:51:54.260Z,98320.44
2022-08-02T14:54:27.781Z,98316.91
2022-08-02T14:56:56.852Z,98318.09
2022-08-02T14:59:23.557Z,98308.47
2022-08-02T15:01:50.142Z,98313.97
2022-08-02T15:04:16.712Z,98311.03
2022-08-02T15:06:43.304Z,98313.56
2022-08-02T15:09:09.816Z,98316.34
2022-08-02T15:11:47.540Z,98309.13
2022-08-02T15:14:25.408Z,98306.84
2022-08-02T15:16:58.878Z,98304.06
2022-08-02T15:19:56.591Z,98303.03
2022-08-02T15:22:16.618Z,98304.06
2022-08-02T15:24:45.327Z,98305.59
2022-08-02T15:27:13.948Z,98302.22
2022-08-02T15:29:41.042Z,98294.91
2022-08-02T15:32:07.759Z,98297.63
2022-08-02T15:34:34.242Z,98293.53
2022-08-02T15:37:00.826Z,98295.91
2022-08-02T15:39:27.316Z,98293.81
2022-08-02T15:41:53.900Z,98290.16
2022-08-02T15:44:20.373Z,98289.41
2022-08-02T15:46:46.936Z,98287.38
2022-08-02T15:49:13.595Z,98288.75
2022-08-02T15:51:42.413Z,98290.94
2022-08-02T15:54:10.557Z,98285.63
2022-08-02T15:56:37.068Z,98292.72
2022-08-02T15:59:03.639Z,98290.31
2022-08-02T16:01:37.039Z,98283.69
2022-08-02T16:04:05.916Z,98280.22
2022-08-02T16:06:32.538Z,98290.19
2022-08-02T16:08:59.055Z,98288.34
2022-08-02T16:11:25.599Z,98292.25
2022-08-02T16:13:55.380Z,98286.69
2022-08-02T16:16:33.001Z,98280.56
2022-08-02T16:19:46.548Z,98286.50
2022-08-02T16:21:48.401Z,98281.56
2022-08-02T16:24:15.021Z,98275.44
2022-08-02T16:26:41.778Z,98276.47
2022-08-02T16:29:08.908Z,98274.34
2022-08-02T16:31:40.016Z,98278.72
2022-08-02T16:34:08.925Z,98279.03
2022-08-02T16:36:35.470Z,98278.56
2022-08-02T16:39:04.030Z,98275.41
2022-08-02T16:41:50.513Z,98273.66
2022-08-02T16:44:17.298Z,98277.56
2022-08-02T16:46:45.007Z,98268.94
2022-08-02T16:50:03.968Z,98270.41
2022-08-02T16:51:58.627Z,98262.75
2022-08-02T16:54:25.120Z,98265.66
2022-08-02T16:56:53.152Z,98263.47
2022-08-02T16:59:19.709Z,98261.22
2022-08-02T17:02:11.676Z,98261.72
2022-08-02T17:04:38.519Z,98268.94
2022-08-02T17:08:05.869Z,98268.34
2022-08-02T17:10:03.614Z,98260.13
2022-08-02T17:12:33.736Z,98260.25
2022-08-02T17:15:00.872Z,98257.44
2022-08-02T17:17:37.371Z,98257.81
2022-08-02T17:20:08.140Z,98261.19
2022-08-02T17:22:36.942Z,98262.75
2022-08-02T17:25:04.547Z,98263.41
2022-08-02T17:27:31.072Z,98264.47
2022-08-02T17:29:59.653Z,98261.50
2022-08-02T17:32:26.188Z,98266.84
2022-08-02T17:37:42.429Z,98265.72
2022-08-02T17:40:09.623Z,98258.59
2022-08-02T17:42:38.780Z,98265.16
2022-08-02T17:45:16.499Z,98267.63
2022-08-02T17:47:43.525Z,98265.91
2022-08-02T17:50:30.158Z,98279.28
2022-08-02T17:52:57.085Z,98272.47
2022-08-02T17:55:23.750Z,98273.44
2022-08-02T17:57:57.044Z,98272.38
2022-08-02T18:00:35.327Z,98270.09
2022-08-02T18:03:05.897Z,98282.28
2022-08-02T18:05:40.222Z,98274.81
2022-08-02T18:08:21.310Z,98271.50
2022-08-02T18:10:48.226Z,98269.00
2022-08-02T18:13:14.933Z,98275.31
2022-08-02T18:15:41.486Z,98270.03
2022-08-02T18:18:12.909Z,98273.13
2022-08-02T18:20:41.013Z,98272.06
2022-08-02T18:23:10.955Z,98271.72
2022-08-02T18:25:46.015Z,98269.28
2022-08-02T18:28:14.430Z,98269.66
2022-08-02T18:30:42.086Z,98274.63
2022-08-02T18:33:57.154Z,98277.47
2022-08-02T18:35:55.243Z,98272.91
2022-08-02T18:38:22.903Z,98277.41
2022-08-02T18:40:50.631Z,98285.38
2022-08-02T18:43:18.206Z,98283.66
2022-08-02T18:46:05.801Z,98279.44
2022-08-02T18:48:31.423Z,98275.47
2022-08-02T18:50:58.327Z,98281.31
2022-08-02T18:53:39.182Z,98280.16
2022-08-02T18:56:10.773Z,98277.94
2022-08-02T18:58:48.013Z,98281.13
2022-08-02T19:01:15.086Z,98274.31
2022-08-02T19:03:58.683Z,98275.84
2022-08-02T19:06:27.399Z,98274.66
2022-08-02T19:09:05.647Z,98278.09
2022-08-02T19:12:28.350Z,98277.50
2022-08-02T19:14:55.175Z,98283.09
2022-08-02T19:17:53.606Z,98275.75
2022-08-02T19:20:10.396Z,98286.16
2022-08-02T19:22:46.332Z,98284.63
2022-08-02T19:25:14.167Z,98286.75
2022-08-02T19:27:42.642Z,98290.38
2022-08-02T19:30:14.448Z,98293.53
2022-08-02T19:32:59.341Z,98290.72
2022-08-02T19:35:30.738Z,98286.63
2022-08-02T19:38:06.440Z,98293.47
2022-08-02T19:40:33.204Z,98296.25
2022-08-02T19:44:23.243Z,98298.00
2022-08-02T19:45:50.739Z,98302.84
2022-08-02T19:48:23.994Z,98302.63
2022-08-02T19:50:56.773Z,98300.75
2022-08-02T19:53:29.079Z,98298.25
2022-08-02T19:56:12.291Z,98302.91
2022-08-02T19:58:39.695Z,98304.13
2022-08-02T20:01:16.490Z,98298.25
2022-08-02T20:03:51.520Z,98307.88
2022-08-02T20:06:19.811Z,98301.81
2022-08-02T20:08:59.393Z,98304.59
2022-08-02T20:11:27.884Z,98302.28
2022-08-02T20:13:54.500Z,98302.50
2022-08-02T20:16:28.246Z,98309.78
2022-08-02T20:18:59.793Z,98310.13
2022-08-02T20:21:35.706Z,98301.69
2022-08-02T20:24:06.025Z,98308.16
2022-08-02T20:26:32.665Z,98302.75
2022-08-02T20:29:03.512Z,98312.13
2022-08-02T20:31:30.449Z,98308.81
2022-08-02T20:33:57.292Z,98310.78
2022-08-02T20:36:25.232Z,98306.00
2022-08-02T20:38:51.885Z,98310.78
2022-08-02T20:41:21.369Z,98311.47
2022-08-02T20:43:48.845Z,98314.88
2022-08-02T20:46:15.574Z,98308.31
2022-08-02T20:48:42.176Z,98307.72
2022-08-02T20:51:12.155Z,98312.88
2022-08-02T20:53:55.259Z,98318.03
2022-08-02T20:56:23.604Z,98313.22
2022-08-02T20:58:51.921Z,98318.25
2022-08-02T21:04:06.297Z,98321.44
2022-08-02T21:06:32.986Z,98320.13
2022-08-02T21:08:59.694Z,98322.22
2022-08-02T21:11:33.477Z,98324.06
2022-08-02T21:14:07.252Z,98323.22
2022-08-02T21:16:36.805Z,98320.13
2022-08-02T21:19:08.084Z,98317.44
2022-08-02T21:21:36.843Z,98315.47
2022-08-02T21:24:03.819Z,98314.25
2022-08-02T21:26:32.507Z,98319.03
2022-08-02T21:29:03.757Z,98309.78
2022-08-02T21:31:33.364Z,98316.41
2022-08-02T21:34:02.760Z,98306.69
2022-08-02T21:36:32.609Z,98309.81
2022-08-02T21:39:08.781Z,98306.53
2022-08-02T21:41:38.996Z,98307.81
2022-08-02T21:44:13.529Z,98309.09
2022-08-02T21:46:44.512Z,98307.66
2022-08-02T21:49:12.463Z,98304.16
2022-08-02T21:51:40.215Z,98304.16
2022-08-02T21:54:18.666Z,98310.81
2022-08-02T21:56:52.209Z,98313.28
2022-08-02T21:59:25.834Z,98313.34
2022-08-02T22:01:57.550Z,98316.66
2022-08-02T22:04:26.659Z,98319.03
2022-08-02T22:06:54.841Z,98323.25
2022-08-02T22:09:44.380Z,98321.44
2022-08-02T22:12:10.261Z,98322.34
2022-08-02T22:14:39.861Z,98318.66
2022-08-02T22:17:13.782Z,98324.09
2022-08-02T22:19:50.997Z,98326.78
2022-08-02T22:22:28.096Z,98323.13
2022-08-02T22:24:57.131Z,98332.91
2022-08-02T22:28:37.311Z,98326.09
2022-08-02T22:30:11.322Z,98329.00
2022-08-02T22:32:56.383Z,98336.94
2022-08-02T22:35:22.994Z,98328.88
2022-08-02T22:38:14.612Z,98334.88
2022-08-02T22:40:36.023Z,98345.84
2022-08-02T22:43:02.590Z,98352.72
2022-08-02T22:45:29.561Z,98341.34
2022-08-02T22:47:58.830Z,98348.44
2022-08-02T22:50:26.984Z,98347.81
2022-08-02T22:52:53.917Z,98349.69
2022-08-02T22:55:21.475Z,98353.03
2022-08-02T22:57:56.467Z,98335.09
2022-08-02T22:58:39.111Z,98265.53
2022-08-02T22:58:56.833Z,98326.13
2022-08-02T23:00:24.380Z,98338.22
2022-08-02T23:02:50.993Z,98339.63
2022-08-02T23:05:18.101Z,98335.53
2022-08-02T23:07:44.629Z,98339.50
2022-08-02T23:10:11.167Z,98339.69
2022-08-02T23:12:37.708Z,98343.84
2022-08-02T23:15:04.550Z,98345.34
2022-08-02T23:17:49.786Z,98339.41
2022-08-02T23:20:19.756Z,98336.28
2022-08-02T23:22:46.397Z,98345.78
2022-08-02T23:25:14.491Z,98342.09
2022-08-02T23:27:50.427Z,98344.19
2022-08-02T23:30:18.133Z,98345.38
2022-08-02T23:32:44.722Z,98344.00
2022-08-02T23:35:17.093Z,98349.63
2022-08-02T23:37:59.463Z,98343.28
2022-08-02T23:40:38.694Z,98346.78
2022-08-02T23:43:13.699Z,98342.69
2022-08-02T23:45:46.072Z,98343.13
2022-08-02T23:48:12.877Z,98350.34
2022-08-02T23:50:39.569Z,98343.72
2022-08-02T23:53:06.143Z,98340.66
2022-08-02T23:55:32.706Z,98335.50
2022-08-02T23:57:59.502Z,98344.16
